Enkhuizen, Netherlands
Current Conditions -  °F | °C
As of 8:26 PM on Thursday 27 Nov 2014 (Local Time) from EHKD Reporting Station
Haze Haze  
Wind Chill: 36°   Ceiling: 3000
Heat Index: 43°   Visibility: 2.9mi
Dew Point: 43°   Wind: 14mph
Humidity: 100%   Direction: 120°ESE
Pressure: 29.74"   Gusts: NA
Location:  52.7°N, 5.29°E
Report Text: EHKD 271926Z AUTO 12012KT 4700 BR OVC030 06/06 Q1007 GRN 12010KT 5000 -DZ FEW006 SCT015 BKN040
Loading
Personal Weather Stations






























Interactive Weather Map New forecast layout! Learn more

10-Day Weather Forecast

Advertisements
Track Severe Weather on mobile